Terminal Aerodrome Forecast
Issued by NWS Corpus Christi, TX

Home | Current Version | Previous Version | Text Only | Print | Product List | Glossary On
Versions: 1 2 3 4 5 6 7 8 9 10 11 12 13 14 15 16 17 18 19
353
FTUS44 KCRP 010536
TAFVCT
TAF
KVCT 010536Z 0106/0206 14005KT P6SM FEW020 BKN150
      TEMPO 0106/0108 13016G22KT
     FM010900 15007KT P6SM BKN020
     FM011500 16008KT P6SM VCSH SCT025 BKN150
     FM011700 15011KT P6SM VCTS SCT035CB OVC120
      TEMPO 0118/0122 VRB20G30KT 2SM +TSRA BR OVC020CB
     FM012200 15012KT 6SM -TSRA BR BKN035CB OVC120
     FM020100 13007KT P6SM VCTS SCT020CB OVC060 PROB30 0201/0206 3SM
      TSRA BR OVC015CB=

USA.gov is the U.S. government's official web portal to all federal, state and local government web resources and services.